createdAt,value
2023-02-12T00:00:44.935Z,5.10
2023-02-12T00:03:11.939Z,5.10
2023-02-12T00:05:39.406Z,5.10
2023-02-12T00:08:06.196Z,5.20
2023-02-12T00:10:33.000Z,5.20
2023-02-12T00:12:59.949Z,5.40
2023-02-12T00:15:26.715Z,5.60
2023-02-12T00:17:53.472Z,5.50
2023-02-12T00:20:20.254Z,5.40
2023-02-12T00:22:47.139Z,5.40
2023-02-12T00:25:14.763Z,5.30
2023-02-12T00:27:41.531Z,5.40
2023-02-12T00:30:08.764Z,5.30
2023-02-12T00:32:37.277Z,5.20
2023-02-12T00:35:04.069Z,5.20
2023-02-12T00:37:30.919Z,5.10
2023-02-12T00:39:57.673Z,5.10
2023-02-12T00:42:24.413Z,5.00
2023-02-12T00:44:51.141Z,5.00
2023-02-12T00:47:17.911Z,4.90
2023-02-12T00:49:44.649Z,4.90
2023-02-12T00:52:11.504Z,5.00
2023-02-12T00:54:38.282Z,5.00
2023-02-12T00:57:05.018Z,5.00
2023-02-12T00:59:31.930Z,5.00
2023-02-12T01:01:58.686Z,5.10
2023-02-12T01:04:25.478Z,5.20
2023-02-12T01:06:54.604Z,5.20
2023-02-12T01:09:21.595Z,5.10
2023-02-12T01:11:48.353Z,5.10
2023-02-12T01:14:16.156Z,5.00
2023-02-12T01:16:43.070Z,5.10
2023-02-12T01:19:11.159Z,5.00
2023-02-12T01:21:38.113Z,5.00
2023-02-12T01:24:05.233Z,4.90
2023-02-12T01:26:32.323Z,5.00
2023-02-12T01:29:01.478Z,5.00
2023-02-12T01:31:30.311Z,5.00
2023-02-12T01:33:58.163Z,5.00
2023-02-12T01:36:26.589Z,5.00
2023-02-12T01:38:53.571Z,5.10
2023-02-12T01:41:27.957Z,5.00
2023-02-12T01:44:06.005Z,4.90
2023-02-12T01:46:33.450Z,4.90
2023-02-12T01:49:00.586Z,4.90
2023-02-12T01:51:28.207Z,4.90
2023-02-12T01:53:55.759Z,4.90
2023-02-12T01:56:23.837Z,4.90
2023-02-12T01:58:51.803Z,5.10
2023-02-12T02:01:20.443Z,4.90
2023-02-12T02:03:49.335Z,5.00
2023-02-12T02:06:20.074Z,4.90
2023-02-12T02:08:48.010Z,4.90
2023-02-12T02:11:33.543Z,4.90
2023-02-12T02:14:19.742Z,4.80
2023-02-12T02:17:07.377Z,4.80
2023-02-12T02:19:46.190Z,4.80
2023-02-12T02:22:18.982Z,4.80
2023-02-12T02:25:04.513Z,4.90
2023-02-12T02:28:07.259Z,4.70
2023-02-12T02:30:34.167Z,4.70
2023-02-12T02:33:03.820Z,4.80
2023-02-12T02:35:39.480Z,4.80
2023-02-12T02:38:11.826Z,4.70
2023-02-12T02:40:46.984Z,4.70
2023-02-12T02:43:20.251Z,4.70
2023-02-12T02:45:48.613Z,4.60
2023-02-12T02:48:18.759Z,4.80
2023-02-12T02:50:51.688Z,5.10
2023-02-12T02:53:20.904Z,5.10
2023-02-12T02:55:50.353Z,4.90
2023-02-12T02:58:20.059Z,4.80
2023-02-12T03:00:57.226Z,4.70
2023-02-12T03:03:27.440Z,4.70
2023-02-12T03:05:56.701Z,4.60
2023-02-12T03:08:26.930Z,4.60
2023-02-12T03:10:59.857Z,4.50
2023-02-12T03:13:29.896Z,4.60
2023-02-12T03:15:59.497Z,4.60
2023-02-12T03:18:28.276Z,4.60
2023-02-12T03:20:59.261Z,4.50
2023-02-12T03:23:29.692Z,4.50
2023-02-12T03:26:04.200Z,4.50
2023-02-12T03:28:35.336Z,4.70
2023-02-12T03:31:09.202Z,4.80
2023-02-12T03:33:42.267Z,4.80
2023-02-12T03:36:22.497Z,4.80
2023-02-12T03:38:51.580Z,4.80
2023-02-12T03:41:22.586Z,4.70
2023-02-12T03:44:00.119Z,4.60
2023-02-12T03:46:32.158Z,4.70
2023-02-12T03:48:59.166Z,4.60
2023-02-12T03:51:30.366Z,4.60
2023-02-12T03:53:57.426Z,4.40
2023-02-12T03:56:27.132Z,4.50
2023-02-12T03:58:53.938Z,4.50
2023-02-12T04:01:20.823Z,4.50
2023-02-12T04:03:48.140Z,4.40
2023-02-12T04:06:25.917Z,4.40
2023-02-12T04:08:53.424Z,4.70
2023-02-12T04:11:26.677Z,4.60
2023-02-12T04:13:56.538Z,4.60
2023-02-12T04:16:31.628Z,4.60
2023-02-12T04:18:58.761Z,4.60
2023-02-12T04:21:38.262Z,4.50
2023-02-12T04:24:11.029Z,4.40
2023-02-12T04:26:57.508Z,4.50
2023-02-12T04:29:30.005Z,4.50
2023-02-12T04:32:15.810Z,4.50
2023-02-12T04:34:45.511Z,4.40
2023-02-12T04:37:16.785Z,4.40
2023-02-12T04:39:44.567Z,4.50
2023-02-12T04:42:11.672Z,4.50
2023-02-12T04:44:40.302Z,4.50
2023-02-12T04:47:06.987Z,4.60
2023-02-12T04:49:33.780Z,4.60
2023-02-12T04:52:00.549Z,4.60
2023-02-12T04:54:27.409Z,4.60
2023-02-12T04:56:54.109Z,4.70
2023-02-12T04:59:20.826Z,4.60
2023-02-12T05:01:47.753Z,4.60
2023-02-12T05:04:15.854Z,4.60
2023-02-12T05:06:43.394Z,4.50
2023-02-12T05:09:13.152Z,4.40
2023-02-12T05:11:39.898Z,4.40
2023-02-12T05:14:06.594Z,4.50
2023-02-12T05:16:33.390Z,4.40
2023-02-12T05:19:00.151Z,4.40
2023-02-12T05:21:26.887Z,4.30
2023-02-12T05:23:53.653Z,4.30
2023-02-12T05:26:21.274Z,4.30
2023-02-12T05:28:48.045Z,4.20
2023-02-12T05:31:17.783Z,4.20
2023-02-12T05:33:47.049Z,4.20
2023-02-12T05:36:15.118Z,4.20
2023-02-12T05:38:41.909Z,4.20
2023-02-12T05:41:10.925Z,4.20
2023-02-12T05:43:37.674Z,4.20
2023-02-12T05:46:05.560Z,4.20
2023-02-12T05:48:32.893Z,4.30
2023-02-12T05:51:29.068Z,4.20
2023-02-12T05:53:57.725Z,4.20
2023-02-12T05:56:25.810Z,4.20
2023-02-12T05:59:03.572Z,4.20
2023-02-12T06:01:37.786Z,4.30
2023-02-12T06:04:05.438Z,4.30
2023-02-12T06:06:32.691Z,4.20
2023-02-12T06:08:59.902Z,4.30
2023-02-12T06:11:26.614Z,4.30
2023-02-12T06:13:53.343Z,4.30
2023-02-12T06:16:24.302Z,4.40
2023-02-12T06:18:51.630Z,4.40
2023-02-12T06:21:18.792Z,4.40
2023-02-12T06:23:45.745Z,4.50
2023-02-12T06:26:12.661Z,4.50
2023-02-12T06:28:39.488Z,4.70
2023-02-12T06:31:06.761Z,4.60
2023-02-12T06:33:35.572Z,4.60
2023-02-12T06:36:03.833Z,4.50
2023-02-12T06:38:30.491Z,4.40
2023-02-12T06:40:57.224Z,4.40
2023-02-12T06:43:23.998Z,4.40
2023-02-12T06:45:50.789Z,4.40
2023-02-12T06:48:17.488Z,4.40
2023-02-12T06:50:44.176Z,4.40
2023-02-12T06:53:10.860Z,4.40
2023-02-12T06:55:37.898Z,4.30
2023-02-12T06:58:04.700Z,4.40
2023-02-12T07:00:31.638Z,4.40
2023-02-12T07:02:58.393Z,4.50
2023-02-12T07:05:25.141Z,4.50
2023-02-12T07:07:51.843Z,4.50
2023-02-12T07:10:19.004Z,4.50
2023-02-12T07:12:46.052Z,4.70
2023-02-12T07:15:13.021Z,4.70
2023-02-12T07:17:39.764Z,4.80
2023-02-12T07:20:06.804Z,4.80
2023-02-12T07:22:35.893Z,4.80
2023-02-12T07:25:02.713Z,4.80
2023-02-12T07:27:29.521Z,4.90
2023-02-12T07:29:56.359Z,4.90
2023-02-12T07:32:23.103Z,4.90
2023-02-12T07:34:49.826Z,4.90
2023-02-12T07:37:22.463Z,5.10
2023-02-12T07:39:49.758Z,5.10
2023-02-12T07:42:16.518Z,5.10
2023-02-12T07:44:48.761Z,5.10
2023-02-12T07:47:16.561Z,5.10
2023-02-12T07:49:43.409Z,5.20
2023-02-12T07:52:13.226Z,5.30
2023-02-12T07:54:40.208Z,5.30
2023-02-12T07:57:07.075Z,5.50
2023-02-12T07:59:34.094Z,5.50
2023-02-12T08:02:01.105Z,5.50
2023-02-12T08:04:28.051Z,5.60
2023-02-12T08:06:55.514Z,5.50
2023-02-12T08:09:24.158Z,5.50
2023-02-12T08:11:51.342Z,5.50
2023-02-12T08:14:19.004Z,5.50
2023-02-12T08:16:46.506Z,5.60
2023-02-12T08:19:20.952Z,5.60
2023-02-12T08:21:52.291Z,5.50
2023-02-12T08:24:19.200Z,5.50
2023-02-12T08:26:45.958Z,5.70
2023-02-12T08:29:14.702Z,5.70
2023-02-12T08:31:42.976Z,5.60
2023-02-12T08:34:16.618Z,5.70
2023-02-12T08:36:44.257Z,5.80
2023-02-12T08:39:11.248Z,5.80
2023-02-12T08:41:38.103Z,6.00
2023-02-12T08:44:05.421Z,6.10
2023-02-12T08:46:34.123Z,6.10
2023-02-12T08:49:02.460Z,6.10
2023-02-12T08:51:31.994Z,6.00
2023-02-12T08:54:10.541Z,6.00
2023-02-12T08:56:37.762Z,6.00
2023-02-12T08:59:05.695Z,6.10
2023-02-12T09:01:33.712Z,6.10
2023-02-12T09:04:01.030Z,6.20
2023-02-12T09:06:28.040Z,6.20
2023-02-12T09:08:55.315Z,6.10
2023-02-12T09:11:26.564Z,6.40
2023-02-12T09:13:53.356Z,6.40
2023-02-12T09:16:20.180Z,6.40
2023-02-12T09:18:47.123Z,6.80
2023-02-12T09:21:15.977Z,6.50
2023-02-12T09:23:46.101Z,6.40
2023-02-12T09:26:15.249Z,6.40
2023-02-12T09:28:42.483Z,6.50
2023-02-12T09:31:10.293Z,6.40
2023-02-12T09:33:37.199Z,6.40
2023-02-12T09:36:04.875Z,6.50
2023-02-12T09:38:31.986Z,6.40
2023-02-12T09:41:07.909Z,6.50
2023-02-12T09:43:53.575Z,6.60
2023-02-12T09:46:26.353Z,6.70
2023-02-12T09:49:00.676Z,6.80
2023-02-12T09:51:28.900Z,6.70
2023-02-12T09:54:01.666Z,6.80
2023-02-12T09:56:28.544Z,6.80
2023-02-12T09:58:57.071Z,6.80
2023-02-12T10:01:23.897Z,6.80
2023-02-12T10:03:52.016Z,6.90
2023-02-12T10:06:21.972Z,6.90
2023-02-12T10:08:59.295Z,7.10
2023-02-12T10:11:29.143Z,7.30
2023-02-12T10:14:14.377Z,7.40
2023-02-12T10:16:49.938Z,7.50
2023-02-12T10:19:16.635Z,7.70
2023-02-12T10:21:52.264Z,7.60
2023-02-12T10:24:27.425Z,7.50
2023-02-12T10:26:55.785Z,7.60
2023-02-12T10:29:24.043Z,7.80
2023-02-12T10:31:52.951Z,8.00
2023-02-12T10:34:19.765Z,8.20
2023-02-12T10:36:47.937Z,8.40
2023-02-12T10:39:20.625Z,8.40
2023-02-12T10:41:55.108Z,8.30
2023-02-12T10:44:22.018Z,8.40
2023-02-12T10:46:48.767Z,8.50
2023-02-12T10:49:16.516Z,8.60
2023-02-12T10:51:58.554Z,8.70
2023-02-12T10:54:38.932Z,8.50
2023-02-12T10:57:25.842Z,8.50
2023-02-12T10:59:54.274Z,8.40
2023-02-12T11:02:22.875Z,8.40
2023-02-12T11:04:50.224Z,8.30
2023-02-12T11:07:17.359Z,8.60
2023-02-12T11:09:48.078Z,8.80
2023-02-12T11:12:19.289Z,8.90
2023-02-12T11:14:54.070Z,8.70
2023-02-12T11:17:30.832Z,8.80
2023-02-12T11:20:23.880Z,8.80
2023-02-12T11:23:01.017Z,9.00
2023-02-12T11:25:29.427Z,9.00
2023-02-12T11:28:05.666Z,8.80
2023-02-12T11:30:32.991Z,8.70
2023-02-12T11:33:22.583Z,8.70
2023-02-12T11:36:01.021Z,8.80
2023-02-12T11:38:30.175Z,9.20
2023-02-12T11:40:58.786Z,9.50
2023-02-12T11:43:26.499Z,9.70
2023-02-12T11:45:56.217Z,9.60
2023-02-12T11:48:24.815Z,9.80
2023-02-12T11:50:53.365Z,9.90
2023-02-12T11:53:22.256Z,10.40
2023-02-12T11:55:54.272Z,10.60
2023-02-12T11:58:22.539Z,10.80
2023-02-12T12:00:49.202Z,11.10
2023-02-12T12:03:15.909Z,11.10
2023-02-12T12:05:48.157Z,11.00
2023-02-12T12:08:35.218Z,10.80
2023-02-12T12:11:22.318Z,11.30
2023-02-12T12:14:07.878Z,11.20
2023-02-12T12:17:00.191Z,11.50
2023-02-12T12:19:57.381Z,12.00
2023-02-12T12:22:40.724Z,12.10
2023-02-12T12:25:27.814Z,12.10
2023-02-12T12:28:03.144Z,12.40
2023-02-12T12:30:48.603Z,12.50
2023-02-12T12:33:34.061Z,12.70
2023-02-12T12:36:01.046Z,12.30
2023-02-12T12:38:27.725Z,12.40
2023-02-12T12:41:13.042Z,12.00
2023-02-12T12:44:02.634Z,12.20
2023-02-12T12:46:35.037Z,12.30
2023-02-12T12:49:19.625Z,12.30
2023-02-12T12:52:04.990Z,12.40
2023-02-12T12:54:52.021Z,13.00
2023-02-12T12:57:38.200Z,12.80
2023-02-12T13:00:12.785Z,12.60
2023-02-12T13:02:39.936Z,12.40
2023-02-12T13:05:25.516Z,12.20
2023-02-12T13:08:02.720Z,12.50
2023-02-12T13:10:35.762Z,12.90
2023-02-12T13:13:02.502Z,13.80
2023-02-12T13:15:29.279Z,14.90
2023-02-12T13:18:15.236Z,15.40
2023-02-12T13:21:00.723Z,16.40
2023-02-12T13:23:33.498Z,17.20
2023-02-12T13:26:18.920Z,17.10
2023-02-12T13:28:51.719Z,17.60
2023-02-12T13:31:32.572Z,17.20
2023-02-12T13:34:02.123Z,17.80
2023-02-12T13:36:28.960Z,18.00
2023-02-12T13:39:03.180Z,18.10
2023-02-12T13:41:30.202Z,18.70
2023-02-12T13:44:00.043Z,18.90
2023-02-12T13:46:45.697Z,18.80
2023-02-12T13:49:18.379Z,19.30
2023-02-12T13:51:47.749Z,19.30
2023-02-12T13:54:17.650Z,19.60
2023-02-12T13:56:50.226Z,19.40
2023-02-12T13:59:32.409Z,19.30
2023-02-12T14:01:59.997Z,18.70
2023-02-12T14:04:34.017Z,17.90
2023-02-12T14:07:09.997Z,16.90
2023-02-12T14:09:40.538Z,15.20
2023-02-12T14:12:13.747Z,14.90
2023-02-12T14:14:43.600Z,14.40
2023-02-12T14:17:28.716Z,14.10
2023-02-12T14:19:57.095Z,14.00
2023-02-12T14:22:26.640Z,13.30
2023-02-12T14:24:54.585Z,13.00
2023-02-12T14:27:21.264Z,13.00
2023-02-12T14:30:23.797Z,12.60
2023-02-12T14:32:50.769Z,12.10
2023-02-12T14:35:26.455Z,12.30
2023-02-12T14:37:57.256Z,12.10
2023-02-12T14:40:50.260Z,12.20
2023-02-12T14:43:22.937Z,12.10
2023-02-12T14:45:49.743Z,11.70
2023-02-12T14:48:35.007Z,11.60
2023-02-12T14:51:02.372Z,11.60
2023-02-12T14:53:34.642Z,11.50
2023-02-12T14:56:02.663Z,11.70
2023-02-12T14:58:32.276Z,11.60
2023-02-12T15:01:00.471Z,11.40
2023-02-12T15:03:30.593Z,11.10
2023-02-12T15:06:16.202Z,11.10
2023-02-12T15:09:02.753Z,11.30
2023-02-12T15:11:38.737Z,11.10
2023-02-12T15:14:44.055Z,11.10
2023-02-12T15:17:14.504Z,11.10
2023-02-12T15:19:50.332Z,11.10
2023-02-12T15:22:23.076Z,11.10
2023-02-12T15:24:49.962Z,11.00
2023-02-12T15:27:16.984Z,11.10
2023-02-12T15:29:45.810Z,11.40
2023-02-12T15:32:18.107Z,11.10
2023-02-12T15:34:48.241Z,11.00
2023-02-12T15:37:21.214Z,11.00
2023-02-12T15:39:48.113Z,11.00
2023-02-12T15:42:34.996Z,11.00
2023-02-12T15:45:22.370Z,11.00
2023-02-12T15:48:08.765Z,11.10
2023-02-12T15:50:55.857Z,10.80
2023-02-12T15:53:24.493Z,10.70
2023-02-12T15:55:51.760Z,10.40
2023-02-12T15:58:25.775Z,10.30
2023-02-12T16:00:53.096Z,10.20
2023-02-12T16:03:21.238Z,10.00
2023-02-12T16:05:49.520Z,9.70
2023-02-12T16:08:17.002Z,9.60
2023-02-12T16:10:45.484Z,9.40
2023-02-12T16:13:16.150Z,9.30
2023-02-12T16:15:43.570Z,9.20
2023-02-12T16:18:24.446Z,9.00
2023-02-12T16:21:02.042Z,8.90
2023-02-12T16:23:28.827Z,8.70
2023-02-12T16:25:56.164Z,8.50
2023-02-12T16:28:27.140Z,8.40
2023-02-12T16:31:06.308Z,8.30
2023-02-12T16:33:34.337Z,8.10
2023-02-12T16:36:02.019Z,7.90
2023-02-12T16:38:39.611Z,7.80
2023-02-12T16:41:15.705Z,7.60
2023-02-12T16:43:42.546Z,7.50
2023-02-12T16:46:09.638Z,7.30
2023-02-12T16:48:37.842Z,7.10
2023-02-12T16:51:06.191Z,7.10
2023-02-12T16:53:35.057Z,7.00
2023-02-12T16:56:02.847Z,6.80
2023-02-12T16:58:29.590Z,6.80
2023-02-12T17:00:57.300Z,6.80
2023-02-12T17:03:24.800Z,6.70
2023-02-12T17:05:52.465Z,6.60
2023-02-12T17:08:23.675Z,6.40
2023-02-12T17:10:50.489Z,6.30
2023-02-12T17:13:17.394Z,6.20
2023-02-12T17:15:44.108Z,6.10
2023-02-12T17:18:14.252Z,6.10
2023-02-12T17:20:41.139Z,6.10
2023-02-12T17:23:09.865Z,6.10
2023-02-12T17:25:36.693Z,6.00
2023-02-12T17:28:03.466Z,6.10
2023-02-12T17:30:32.326Z,6.10
2023-02-12T17:32:59.321Z,6.20
2023-02-12T17:35:26.248Z,6.20
2023-02-12T17:37:53.021Z,6.20
2023-02-12T17:40:20.062Z,6.20
2023-02-12T17:42:46.981Z,6.40
2023-02-12T17:45:13.674Z,6.70
2023-02-12T17:47:40.587Z,6.80
2023-02-12T17:50:08.621Z,6.70
2023-02-12T17:52:35.379Z,6.70
2023-02-12T17:55:02.116Z,6.60
2023-02-12T17:57:28.950Z,6.40
2023-02-12T17:59:55.689Z,6.40
2023-02-12T18:02:22.443Z,6.30
2023-02-12T18:04:49.218Z,6.30
2023-02-12T18:07:16.102Z,6.10
2023-02-12T18:09:42.950Z,6.10
2023-02-12T18:12:09.744Z,6.20
2023-02-12T18:14:36.457Z,6.10
2023-02-12T18:17:03.247Z,6.10
2023-02-12T18:19:30.162Z,5.90
2023-02-12T18:21:57.148Z,6.00
2023-02-12T18:24:23.895Z,6.00
2023-02-12T18:26:51.042Z,5.90
2023-02-12T18:29:17.753Z,5.90
2023-02-12T18:31:44.680Z,5.90
2023-02-12T18:34:11.409Z,5.90
2023-02-12T18:36:38.195Z,5.90
2023-02-12T18:39:04.921Z,5.90
2023-02-12T18:41:32.502Z,5.80
2023-02-12T18:43:59.502Z,5.70
2023-02-12T18:46:30.674Z,5.50
2023-02-12T18:48:57.491Z,5.40
2023-02-12T18:51:26.322Z,5.30
2023-02-12T18:53:57.115Z,5.20
2023-02-12T18:56:24.016Z,5.20
2023-02-12T18:58:54.119Z,5.20
2023-02-12T19:01:21.046Z,5.30
2023-02-12T19:03:49.407Z,5.20
2023-02-12T19:06:16.405Z,5.30
2023-02-12T19:08:43.204Z,5.20
2023-02-12T19:11:10.600Z,5.20
2023-02-12T19:13:37.613Z,5.20
2023-02-12T19:16:08.602Z,5.20
2023-02-12T19:18:35.679Z,5.40
2023-02-12T19:21:06.583Z,5.40
2023-02-12T19:23:33.413Z,5.40
2023-02-12T19:26:04.106Z,5.30
2023-02-12T19:28:30.997Z,5.40
2023-02-12T19:30:58.281Z,5.10
2023-02-12T19:33:25.401Z,5.20
2023-02-12T19:35:52.098Z,5.10
2023-02-12T19:38:19.003Z,4.90
2023-02-12T19:40:45.759Z,4.80
2023-02-12T19:43:12.510Z,4.70
2023-02-12T19:45:39.290Z,4.60
2023-02-12T19:48:06.064Z,4.60
2023-02-12T19:50:35.277Z,4.60
2023-02-12T19:53:02.186Z,4.60
2023-02-12T19:55:28.949Z,4.50
2023-02-12T19:57:55.649Z,4.40
2023-02-12T20:00:22.664Z,4.30
2023-02-12T20:02:49.408Z,4.20
2023-02-12T20:05:16.231Z,4.10
2023-02-12T20:07:42.976Z,4.10
2023-02-12T20:10:11.111Z,4.00
2023-02-12T20:12:40.134Z,3.90
2023-02-12T20:15:07.104Z,3.80
2023-02-12T20:17:34.039Z,3.70
2023-02-12T20:20:01.165Z,3.70
2023-02-12T20:22:27.863Z,3.60
2023-02-12T20:24:54.759Z,3.70
2023-02-12T20:27:21.549Z,3.60
2023-02-12T20:29:48.283Z,3.70
2023-02-12T20:32:15.055Z,3.70
2023-02-12T20:34:50.578Z,3.70
2023-02-12T20:37:18.848Z,3.90
2023-02-12T20:39:45.809Z,4.00
2023-02-12T20:42:12.673Z,4.00
2023-02-12T20:44:39.416Z,4.00
2023-02-12T20:47:06.239Z,4.10
2023-02-12T20:49:33.012Z,4.10
2023-02-12T20:51:59.916Z,4.00
2023-02-12T20:54:26.738Z,3.90
2023-02-12T20:56:53.550Z,4.00
2023-02-12T20:59:20.372Z,3.80
2023-02-12T21:01:47.649Z,3.90
2023-02-12T21:04:16.728Z,3.90
2023-02-12T21:06:44.853Z,4.00
2023-02-12T21:09:12.536Z,4.00
2023-02-12T21:11:40.968Z,4.00
2023-02-12T21:14:21.243Z,3.80
2023-02-12T21:16:49.854Z,3.70
2023-02-12T21:19:16.975Z,3.80
2023-02-12T21:21:46.964Z,3.70
2023-02-12T21:24:15.332Z,3.60
2023-02-12T21:26:42.488Z,3.50
2023-02-12T21:29:09.475Z,3.40
2023-02-12T21:31:37.881Z,3.40
2023-02-12T21:34:05.902Z,3.30
2023-02-12T21:36:33.902Z,3.20
2023-02-12T21:39:00.799Z,3.30
2023-02-12T21:41:35.625Z,3.30
2023-02-12T21:44:03.772Z,3.20
2023-02-12T21:46:30.551Z,3.30
2023-02-12T21:48:58.528Z,3.20
2023-02-12T21:51:26.382Z,3.00
2023-02-12T21:53:55.037Z,3.10
2023-02-12T21:56:22.405Z,3.20
2023-02-12T21:58:49.681Z,3.20
2023-02-12T22:04:35.315Z,3.20
2023-02-12T22:07:03.517Z,3.10
2023-02-12T22:09:30.652Z,3.20
2023-02-12T22:11:57.488Z,3.20
2023-02-12T22:14:24.279Z,3.10
2023-02-12T22:16:51.136Z,3.10
2023-02-12T22:19:18.102Z,3.10
2023-02-12T22:21:45.449Z,3.10
2023-02-12T22:24:15.602Z,3.10
2023-02-12T22:26:42.745Z,3.20
2023-02-12T22:29:10.556Z,3.10
2023-02-12T22:31:39.180Z,3.10
2023-02-12T22:34:08.270Z,3.10
2023-02-12T22:36:36.253Z,3.00
2023-02-12T22:39:03.661Z,2.90
2023-02-12T22:41:30.934Z,2.90
2023-02-12T22:44:01.456Z,3.00
2023-02-12T22:46:28.265Z,3.00
2023-02-12T22:48:55.050Z,2.90
2023-02-12T22:51:26.339Z,3.00
2023-02-12T22:53:54.134Z,3.00
2023-02-12T22:56:20.980Z,2.90
2023-02-12T22:58:48.044Z,2.90
2023-02-12T23:01:17.780Z,2.90
2023-02-12T23:03:45.359Z,2.90
2023-02-12T23:06:13.494Z,3.00
2023-02-12T23:08:40.470Z,2.90
2023-02-12T23:11:08.584Z,3.00
2023-02-12T23:13:36.312Z,2.90
2023-02-12T23:16:03.260Z,3.00
2023-02-12T23:18:30.228Z,3.10
2023-02-12T23:20:57.473Z,3.10
2023-02-12T23:23:24.455Z,3.10
2023-02-12T23:25:51.569Z,3.10
2023-02-12T23:28:18.337Z,3.10
2023-02-12T23:30:45.182Z,3.10
2023-02-12T23:33:12.000Z,3.20
2023-02-12T23:35:38.799Z,3.00
2023-02-12T23:38:05.668Z,3.10
2023-02-12T23:40:33.284Z,3.10
2023-02-12T23:43:00.107Z,3.00
2023-02-12T23:45:27.663Z,3.00
2023-02-12T23:47:54.460Z,3.00
2023-02-12T23:50:21.434Z,2.90
2023-02-12T23:52:48.387Z,2.90
2023-02-12T23:55:15.189Z,2.80
2023-02-12T23:57:41.908Z,2.70
